Time;durP1;ratioP1;P1;durP2;ratioP2;P2;SDS_P1;SDS_P2;PMS_P1;PMS_P2;Temp;Humidity;BMP_temperature;BMP_pressure;BME280_temperature;BME280_humidity;BME280_pressure;Samples;Min_cycle;Max_cycle;Signal;HPM_P1;HPM_P2
2022/01/22 00:01:47;;;;;;;11.18;5.00;;;;;;;;;;5118749;27;20035;-78
2022/01/22 00:04:12;;;;;;;19.92;9.48;;;;;;;;;;5118305;27;20351;-79
2022/01/22 00:06:38;;;;;;;21.13;10.52;;;;;;;;;;5117854;27;20848;-79
2022/01/22 00:09:04;;;;;;;32.03;11.45;;;;;;;;;;5116998;27;20023;-79
2022/01/22 00:11:35;;;;;;;31.98;13.43;;;;;;;;;;5103608;27;20078;-78
2022/01/22 00:16:44;;;;;;;29.92;13.45;;;;;;;;;;5102558;27;21069;-77
2022/01/22 00:19:10;;;;;;;20.92;9.82;;;;;;;;;;5099501;28;20110;-79
2022/01/22 00:21:36;;;;;;;20.70;9.95;;;;;;;;;;5098748;28;20489;-78
2022/01/22 00:24:02;;;;;;;34.38;15.00;;;;;;;;;;5096870;28;20031;-79
2022/01/22 00:26:27;;;;;;;76.00;30.15;;;;;;;;;;5097038;28;20516;-78
2022/01/22 00:28:53;;;;;;;34.50;13.57;;;;;;;;;;5096352;28;20039;-79
2022/01/22 00:31:18;;;;;;;79.75;37.53;;;;;;;;;;5096826;28;20023;-81
2022/01/22 00:33:43;;;;;;;61.90;28.52;;;;;;;;;;5100173;27;20383;-79
2022/01/22 00:36:09;;;;;;;48.15;21.90;;;;;;;;;;5105572;27;20038;-79
2022/01/22 00:38:34;;;;;;;23.17;10.45;;;;;;;;;;5100964;27;20035;-78
2022/01/22 00:41:00;;;;;;;21.75;11.02;;;;;;;;;;5096976;28;20020;-79
2022/01/22 00:43:25;;;;;;;21.65;11.65;;;;;;;;;;5096660;28;20032;-81
2022/01/22 00:45:51;;;;;;;28.05;12.43;;;;;;;;;;5096967;28;20114;-79
2022/01/22 00:48:16;;;;;;;91.20;49.85;;;;;;;;;;5096415;28;20371;-78
2022/01/22 00:50:43;;;;;;;63.08;36.65;;;;;;;;;;5096608;28;20058;-79
2022/01/22 00:53:08;;;;;;;30.20;14.98;;;;;;;;;;5096751;28;20023;-79
2022/01/22 00:55:34;;;;;;;72.45;34.65;;;;;;;;;;5096110;28;20035;-79
2022/01/22 00:57:59;;;;;;;56.95;32.70;;;;;;;;;;5096033;28;20023;-81
2022/01/22 01:00:25;;;;;;;114.88;51.88;;;;;;;;;;5096254;28;20252;-80
2022/01/22 01:02:50;;;;;;;87.25;37.53;;;;;;;;;;5096064;28;20424;-79
2022/01/22 01:05:15;;;;;;;98.47;37.20;;;;;;;;;;5096659;28;20481;-78
2022/01/22 01:07:41;;;;;;;25.17;12.15;;;;;;;;;;5111411;27;20412;-79
2022/01/22 01:10:08;;;;;;;13.73;7.25;;;;;;;;;;5116355;27;20091;-77
2022/01/22 01:12:35;;;;;;;14.23;7.10;;;;;;;;;;5116394;27;20680;-81
2022/01/22 01:15:35;;;;;;;14.05;7.22;;;;;;;;;;5116450;27;20023;-78
2022/01/22 01:32:08;;;;;;;;;;;;;;;;;;5116615;27;20030;-79
2022/01/22 01:34:28;;;;;;;;;;;;;;;;;;5117696;27;20855;-80
2022/01/22 01:36:54;;;;;;;;;;;;;;;;;;5117178;27;19911;-81
2022/01/22 01:39:25;;;;;;;;;;;;;;;;;;5115810;27;20433;-80
2022/01/22 01:44:18;;;;;;;;;;;;;;;;;;5118858;27;19903;-80
2022/01/22 01:46:44;;;;;;;;;;;;;;;;;;5116974;27;19932;-78
2022/01/22 01:49:09;;;;;;;;;;;;;;;;;;5118354;27;19907;-78
2022/01/22 01:51:35;;;;;;;;;;;;;;;;;;5115998;27;19931;-79
2022/01/22 01:54:07;;;;;;;;;;;;;;;;;;5116192;27;19907;-79
2022/01/22 01:59:16;;;;;;;;;;;;;;;;;;5116778;27;20315;-77
2022/01/22 02:01:42;;;;;;;;;;;;;;;;;;5115967;27;19903;-80
2022/01/22 02:04:09;;;;;;;;;;;;;;;;;;5115467;27;19909;-78
2022/01/22 02:06:35;;;;;;;;;;;;;;;;;;5115429;27;19914;-80
2022/01/22 02:09:00;;;;;;;;;;;;;;;;;;5115826;27;19907;-79
2022/01/22 02:11:27;;;;;;;;;;;;;;;;;;5116073;27;19915;-78
2022/01/22 02:24:39;;;;;;;;;;;;;;;;;;5118506;27;19914;-80
2022/01/22 02:27:05;;;;;;;;;;;;;;;;;;5116000;27;20002;-80
2022/01/22 02:29:30;;;;;;;;;;;;;;;;;;5115452;27;20318;-79
2022/01/22 02:34:44;;;;;;;;;;;;;;;;;;5094069;27;19907;-79
2022/01/22 02:37:14;;;;;;;;;;;;;;;;;;5115287;27;19949;-79
2022/01/22 02:42:05;;;;;;;;;;;;;;;;;;5116659;27;19914;-78
2022/01/22 02:44:43;;;;;;;;;;;;;;;;;;5115198;27;20326;-78
2022/01/22 02:47:08;;;;;;;;;;;;;;;;;;5115006;27;19967;-79
2022/01/22 02:49:33;;;;;;;;;;;;;;;;;;5115418;27;19908;-78
2022/01/22 02:51:59;;;;;;;;;;;;;;;;;;5115487;27;19910;-78
2022/01/22 02:54:24;;;;;;;;;;;;;;;;;;5115157;27;19967;-78
2022/01/22 02:56:49;;;;;;;;;;;;;;;;;;5115558;27;19907;-80
2022/01/22 02:59:20;;;;;;;;;;;;;;;;;;5115600;28;20037;-78
2022/01/22 03:01:46;;;;;;;;;;;;;;;;;;5115133;28;19912;-80
2022/01/22 03:04:11;;;;;;;;;;;;;;;;;;5115676;28;19999;-80
2022/01/22 03:06:36;;;;;;;;;;;;;;;;;;5115421;28;20277;-80
2022/01/22 03:09:01;;;;;;;;;;;;;;;;;;5116050;28;19907;-81
2022/01/22 03:11:30;;;;;;;;;;;;;;;;;;5115460;28;19916;-80
2022/01/22 03:14:46;;;;;;;;;;;;;;;;;;5115412;28;19907;-78
2022/01/22 03:27:30;;;;;;;;;;;;;;;;;;5120552;27;19928;-79
2022/01/22 03:29:56;;;;;;;;;;;;;;;;;;5120173;27;19915;-79
2022/01/22 03:32:22;;;;;;;;;;;;;;;;;;5119067;27;19907;-79
2022/01/22 03:35:00;;;;;;;;;;;;;;;;;;5118483;27;19959;-79
2022/01/22 03:37:26;;;;;;;;;;;;;;;;;;5118418;27;20353;-78
2022/01/22 03:39:51;;;;;;;;;;;;;;;;;;5118898;27;19915;-79
2022/01/22 03:42:16;;;;;;;;;;;;;;;;;;5118807;27;19907;-77
2022/01/22 03:44:41;;;;;;;;;;;;;;;;;;5120254;27;19907;-79
2022/01/22 03:47:06;;;;;;;;;;;;;;;;;;5119745;27;19907;-79
2022/01/22 03:49:32;;;;;;;;;;;;;;;;;;5118450;27;19971;-78
2022/01/22 03:51:57;;;;;;;;;;;;;;;;;;5118244;27;19918;-79
2022/01/22 03:54:22;;;;;;;;;;;;;;;;;;5119222;27;19916;-79
2022/01/22 03:56:48;;;;;;;;;;;;;;;;;;5120151;27;19911;-78
2022/01/22 03:59:13;;;;;;;;;;;;;;;;;;5117673;27;19915;-79
2022/01/22 04:04:24;;;;;;;;;;;;;;;;;;5119797;27;20002;-79
2022/01/22 04:09:29;;;;;;;;;;;;;;;;;;5120119;27;19939;-78
2022/01/22 04:11:54;;;;;;;;;;;;;;;;;;5118175;27;19903;-80
2022/01/22 04:14:22;;;;;;;;;;;;;;;;;;5119020;27;19995;-78
2022/01/22 04:17:20;;;;;;;;;;;;;;;;;;5118715;27;20097;-78
2022/01/22 04:25:19;;;;;;;;;;;;;;;;;;5119388;27;20125;-79
2022/01/22 04:27:44;;;;;;;;;;;;;;;;;;5118644;27;19998;-79
2022/01/22 04:30:09;;;;;;;;;;;;;;;;;;5117962;27;19994;-78
2022/01/22 04:32:35;;;;;;;;;;;;;;;;;;5117237;27;20001;-79
2022/01/22 04:35:01;;;;;;;;;;;;;;;;;;5119311;27;19907;-77
2022/01/22 04:37:26;;;;;;;;;;;;;;;;;;5118650;27;19952;-78
2022/01/22 04:39:52;;;;;;;;;;;;;;;;;;5119008;27;20289;-78
2022/01/22 04:42:17;;;;;;;;;;;;;;;;;;5120540;27;19990;-78
2022/01/22 04:45:07;;;;;;;;;;;;;;;;;;5118504;27;20400;-81
2022/01/22 04:47:45;;;;;;;;;;;;;;;;;;5119677;27;19903;-78
2022/01/22 04:55:38;;;;;;;;;;;;;;;;;;5118621;27;19932;-79
2022/01/22 04:58:03;;;;;;;;;;;;;;;;;;5117470;27;20002;-79
2022/01/22 05:00:28;;;;;;;;;;;;;;;;;;5117738;27;19919;-77
2022/01/22 05:02:53;;;;;;;;;;;;;;;;;;5120167;27;19910;-79
2022/01/22 05:05:19;;;;;;;;;;;;;;;;;;5118091;27;19960;-79
2022/01/22 05:07:44;;;;;;;;;;;;;;;;;;5117221;27;19910;-79
2022/01/22 05:10:09;;;;;;;;;;;;;;;;;;5117339;27;20432;-76
2022/01/22 05:12:34;;;;;;;;;;;;;;;;;;5118893;27;19911;-80
2022/01/22 05:15:00;;;;;;;;;;;;;;;;;;5116299;27;19915;-79
2022/01/22 05:17:25;;;;;;;;;;;;;;;;;;5117402;27;19980;-79
2022/01/22 05:19:56;;;;;;;;;;;;;;;;;;5118235;27;19911;-80
2022/01/22 05:25:10;;;;;;;;;;;;;;;;;;5118630;27;19914;-78
2022/01/22 05:27:59;;;;;;;;;;;;;;;;;;5119131;27;19913;-80
2022/01/22 05:38:19;;;;;;;;;;;;;;;;;;5106011;27;19914;-79
2022/01/22 05:40:45;;;;;;;;;;;;;;;;;;5106357;27;20001;-79
2022/01/22 05:43:11;;;;;;;;;;;;;;;;;;5098087;27;19954;-76
2022/01/22 05:45:36;;;;;;;;;;;;;;;;;;5098743;27;20626;-78
2022/01/22 05:48:01;;;;;;;;;;;;;;;;;;5116615;27;19914;-77
2022/01/22 05:50:34;;;;;;;;;;;;;;;;;;5116016;27;19904;-78
2022/01/22 05:53:16;;;;;;;;;;;;;;;;;;5115143;27;19918;-78
2022/01/22 05:59:35;;;;;;;;;;;;;;;;;;5112840;27;20282;-77
2022/01/22 06:01:10;;;;;;;;;;;;;;;;;;5097577;28;20358;-77
2022/01/22 06:03:35;;;;;;;;;;;;;;;;;;5104959;27;19915;-78
2022/01/22 06:06:00;;;;;;;;;;;;;;;;;;5100413;27;20320;-78
2022/01/22 06:08:30;;;;;;;;;;;;;;;;;;5100506;27;19912;-77
2022/01/22 06:10:56;;;;;;;;;;;;;;;;;;5054147;27;19919;-78
2022/01/22 06:13:29;;;;;;;;;;;;;;;;;;5095961;28;19910;-75
2022/01/22 06:15:54;;;;;;;;;;;;;;;;;;5096162;28;20189;-77
2022/01/22 06:18:19;;;;;;;;;;;;;;;;;;5094742;28;20010;-77
2022/01/22 06:20:44;;;;;;;;;;;;;;;;;;5094943;28;19927;-77
2022/01/22 06:23:09;;;;;;;;;;;;;;;;;;5094944;28;20390;-76
2022/01/22 06:25:35;;;;;;;;;;;;;;;;;;5085155;28;19912;-78
2022/01/22 06:28:01;;;;;;;;;;;;;;;;;;5085512;28;19907;-79
2022/01/22 06:30:26;;;;;;;;;;;;;;;;;;5087734;28;19912;-77
2022/01/22 06:32:51;;;;;;;;;;;;;;;;;;5084878;28;20350;-77
2022/01/22 06:35:17;;;;;;;;;;;;;;;;;;5088200;28;19952;-80
2022/01/22 06:37:42;;;;;;;;;;;;;;;;;;5086337;28;20278;-79
2022/01/22 06:42:32;;;;;;;;;;;;;;;;;;5087433;28;19908;-77
2022/01/22 06:44:57;;;;;;;;;;;;;;;;;;5084126;28;19915;-76
2022/01/22 06:47:22;;;;;;;;;;;;;;;;;;5085659;28;19911;-76
2022/01/22 06:49:48;;;;;;;;;;;;;;;;;;5084680;28;19907;-75
2022/01/22 06:52:13;;;;;;;;;;;;;;;;;;5084930;28;19947;-77
2022/01/22 06:54:45;;;;;;;;;;;;;;;;;;5086392;28;19908;-77
2022/01/22 06:57:10;;;;;;;;;;;;;;;;;;5084948;28;20026;-77
2022/01/22 06:59:35;;;;;;;;;;;;;;;;;;5082057;28;20007;-76
2022/01/22 07:02:00;;;;;;;;;;;;;;;;;;5075749;28;19931;-78
2022/01/22 07:04:26;;;;;;;;;;;;;;;;;;5093624;28;19961;-77
2022/01/22 07:06:51;;;;;;;;;;;;;;;;;;5085881;28;19904;-79
2022/01/22 07:09:16;;;;;;;;;;;;;;;;;;5074352;28;19998;-77
2022/01/22 07:11:41;;;;;;;;;;;;;;;;;;5074124;28;20389;-78
2022/01/22 07:14:06;;;;;;;;;;;;;;;;;;5073865;28;19955;-79
2022/01/22 07:16:31;;;;;;;;;;;;;;;;;;5074200;28;19908;-78
2022/01/22 07:19:01;;;;;;;;;;;;;;;;;;5075589;28;19916;-78
2022/01/22 07:21:28;;;;;;;;;;;;;;;;;;5074111;28;20267;-78
2022/01/22 07:24:22;;;;;;;;;;;;;;;;;;5093720;28;20022;-76
2022/01/22 07:26:38;;;;;;;;;;;;;;;;;;5080682;28;19912;-78
2022/01/22 07:29:04;;;;;;;;;;;;;;;;;;5079232;28;19990;-78
2022/01/22 07:31:29;;;;;;;;;;;;;;;;;;5094682;28;19942;-78
2022/01/22 07:33:54;;;;;;;;;;;;;;;;;;5094296;28;19998;-77
2022/01/22 07:36:19;;;;;;;;;;;;;;;;;;5093730;28;20045;-78
2022/01/22 07:38:44;;;;;;;;;;;;;;;;;;5094076;28;19923;-78
2022/01/22 07:41:09;;;;;;;;;;;;;;;;;;5095338;28;19904;-76
2022/01/22 07:43:35;;;;;;;;;;;;;;;;;;5094348;28;20114;-77
2022/01/22 07:46:00;;;;;;;;;;;;;;;;;;5094112;28;19911;-78
2022/01/22 07:48:25;;;;;;;;;;;;;;;;;;5095751;28;19921;-77
2022/01/22 07:50:50;;;;;;;;;;;;;;;;;;5093741;28;19923;-77
2022/01/22 07:53:15;;;;;;;;;;;;;;;;;;5089771;28;19923;-78
2022/01/22 07:55:41;;;;;;;;;;;;;;;;;;5085800;28;20366;-79
2022/01/22 07:58:06;;;;;;;;;;;;;;;;;;5046108;28;20002;-79
2022/01/22 08:00:31;;;;;;;;;;;;;;;;;;5018479;28;20400;-77
2022/01/22 08:02:56;;;;;;;;;;;;;;;;;;5064633;28;19908;-78
2022/01/22 08:05:22;;;;;;;;;;;;;;;;;;5073340;28;19953;-77
2022/01/22 08:07:47;;;;;;;;;;;;;;;;;;5078296;28;19912;-77
2022/01/22 08:10:12;;;;;;;;;;;;;;;;;;5072891;28;19927;-79
2022/01/22 08:12:37;;;;;;;;;;;;;;;;;;5069190;28;19908;-79
2022/01/22 08:15:55;;;;;;;12.93;8.50;;;;;;;;;;5114431;27;21429;-78
2022/01/22 08:18:20;;;;;;;16.92;9.13;;;;;;;;;;5054722;27;20109;-77
2022/01/22 08:20:47;;;;;;;12.45;7.57;;;;;;;;;;5071324;28;20021;-79
2022/01/22 08:23:12;;;;;;;23.50;15.60;;;;;;;;;;5080665;28;20040;-78
2022/01/22 08:25:41;;;;;;;18.30;12.65;;;;;;;;;;5091373;28;20035;-78
2022/01/22 08:30:33;;;;;;;62.03;31.95;;;;;;;;;;5092457;28;20101;-78
2022/01/22 08:35:54;;;;;;;72.65;36.25;;;;;;;;;;5092481;28;20540;-78
2022/01/22 08:38:27;;;;;;;38.80;20.35;;;;;;;;;;5090711;28;20039;-78
2022/01/22 08:40:53;;;;;;;84.28;46.00;;;;;;;;;;5093643;28;20012;-78
2022/01/22 08:43:18;;;;;;;86.90;47.28;;;;;;;;;;5092618;28;20016;-79
2022/01/22 08:45:44;;;;;;;63.60;39.35;;;;;;;;;;5091083;28;20038;-78
2022/01/22 08:48:10;;;;;;;18.38;13.10;;;;;;;;;;5092684;28;20024;-79
2022/01/22 08:50:35;;;;;;;14.93;9.85;;;;;;;;;;5091259;28;20061;-78
2022/01/22 08:53:01;;;;;;;15.82;11.52;;;;;;;;;;5091261;28;20016;-79
2022/01/22 08:55:26;;;;;;;14.30;9.48;;;;;;;;;;5091058;28;20034;-79
2022/01/22 08:57:52;;;;;;;20.77;13.63;;;;;;;;;;5091030;28;20096;-79
2022/01/22 09:00:17;;;;;;;18.33;13.07;;;;;;;;;;5091160;28;20024;-80
2022/01/22 09:02:45;;;;;;;23.77;17.55;;;;;;;;;;5090903;28;20027;-80
2022/01/22 09:05:20;;;;;;;17.30;10.75;;;;;;;;;;5090603;28;20031;-78
2022/01/22 09:07:46;;;;;;;111.63;59.60;;;;;;;;;;5090635;28;20471;-79
2022/01/22 09:10:12;;;;;;;52.90;33.42;;;;;;;;;;5090596;28;20134;-78
2022/01/22 09:12:37;;;;;;;39.05;24.67;;;;;;;;;;5090262;28;20059;-78
2022/01/22 09:15:03;;;;;;;38.47;23.85;;;;;;;;;;5049773;28;20079;-79
2022/01/22 09:17:29;;;;;;;63.97;33.85;;;;;;;;;;5090826;28;20031;-79
2022/01/22 09:19:58;;;;;;;65.43;33.10;;;;;;;;;;5087376;28;20063;-78
2022/01/22 09:22:24;;;;;;;47.28;25.25;;;;;;;;;;5090855;28;20051;-78
2022/01/22 09:24:49;;;;;;;71.60;35.17;;;;;;;;;;5091233;28;20137;-79
2022/01/22 09:27:16;;;;;;;62.40;28.77;;;;;;;;;;5077215;28;20027;-79
2022/01/22 09:29:41;;;;;;;47.65;23.05;;;;;;;;;;5076300;28;20024;-79
2022/01/22 09:32:07;;;;;;;84.15;43.38;;;;;;;;;;5076949;28;20471;-79
2022/01/22 09:34:32;;;;;;;65.57;34.33;;;;;;;;;;5076416;28;20597;-79
2022/01/22 09:36:57;;;;;;;31.60;17.75;;;;;;;;;;5074953;28;20067;-79
2022/01/22 09:39:23;;;;;;;13.82;7.25;;;;;;;;;;5075499;28;20078;-80
2022/01/22 09:41:48;;;;;;;22.67;14.05;;;;;;;;;;5076221;28;20028;-80
2022/01/22 09:44:13;;;;;;;22.23;12.68;;;;;;;;;;5077318;28;20081;-80
2022/01/22 09:46:40;;;;;;;21.52;12.73;;;;;;;;;;5077186;28;20168;-80
2022/01/22 09:49:05;;;;;;;21.38;12.02;;;;;;;;;;5077520;28;20090;-78
2022/01/22 09:51:31;;;;;;;14.27;6.60;;;;;;;;;;5076849;28;20455;-81
2022/01/22 09:53:56;;;;;;;16.58;8.23;;;;;;;;;;5078038;28;20907;-78
2022/01/22 09:56:23;;;;;;;34.75;17.88;;;;;;;;;;5077223;28;20056;-81
2022/01/22 09:58:49;;;;;;;15.05;8.85;;;;;;;;;;5076799;28;20119;-82
2022/01/22 10:01:20;;;;;;;24.73;12.65;;;;;;;;;;5076497;28;20074;-80
2022/01/22 10:03:46;;;;;;;16.20;9.10;;;;;;;;;;5076536;28;20020;-79
2022/01/22 10:06:18;;;;;;;38.05;17.73;;;;;;;;;;5076168;28;20026;-76
2022/01/22 10:08:44;;;;;;;41.40;19.33;;;;;;;;;;5075913;28;20454;-78
2022/01/22 10:11:30;;;;;;;35.58;14.75;;;;;;;;;;5076175;28;20067;-77
2022/01/22 10:13:59;;;;;;;57.25;25.70;;;;;;;;;;5056125;28;20467;-81
2022/01/22 10:16:26;;;;;;;47.55;20.60;;;;;;;;;;5055264;28;20031;-78
2022/01/22 10:19:10;;;;;;;34.92;14.98;;;;;;;;;;5055667;28;20075;-79
2022/01/22 10:21:37;;;;;;;43.55;22.20;;;;;;;;;;5063027;28;20028;-79
2022/01/22 10:24:43;;;;;;;33.10;19.02;;;;;;;;;;5066983;28;20020;-78
2022/01/22 10:29:52;;;;;;;45.47;26.23;;;;;;;;;;5013533;28;20060;-79
2022/01/22 10:32:19;;;;;;;32.53;19.37;;;;;;;;;;5042785;28;20032;-78
2022/01/22 10:34:44;;;;;;;21.08;12.98;;;;;;;;;;5075632;28;20118;-80
2022/01/22 10:37:09;;;;;;;14.25;9.27;;;;;;;;;;5074642;28;20119;-78
2022/01/22 10:39:35;;;;;;;23.80;13.23;;;;;;;;;;5074949;28;20119;-77
2022/01/22 10:42:00;;;;;;;21.98;13.50;;;;;;;;;;5076669;28;20024;-79
2022/01/22 10:44:36;;;;;;;27.67;14.60;;;;;;;;;;5076836;28;20039;-78
2022/01/22 10:47:03;;;;;;;37.72;20.02;;;;;;;;;;5075169;28;20031;-80
2022/01/22 10:49:29;;;;;;;19.88;12.30;;;;;;;;;;5074890;28;20051;-77
2022/01/22 10:52:00;;;;;;;22.90;13.60;;;;;;;;;;5074631;28;20063;-78
2022/01/22 10:54:29;;;;;;;9.43;5.35;;;;;;;;;;5076355;28;20123;-78
2022/01/22 10:57:08;;;;;;;15.43;11.20;;;;;;;;;;5092137;28;20031;-79
2022/01/22 10:59:33;;;;;;;26.85;16.88;;;;;;;;;;5077086;28;20434;-78
2022/01/22 11:02:00;;;;;;;18.88;13.95;;;;;;;;;;5074864;28;20068;-79
2022/01/22 11:04:43;;;;;;;16.88;9.30;;;;;;;;;;5076315;28;20028;-78
2022/01/22 11:07:14;;;;;;;15.77;10.63;;;;;;;;;;5074799;28;20047;-82
2022/01/22 11:09:39;;;;;;;34.90;21.25;;;;;;;;;;5076607;28;20020;-78
2022/01/22 11:12:05;;;;;;;13.50;9.57;;;;;;;;;;5074240;28;20081;-79
2022/01/22 11:14:42;;;;;;;21.00;13.73;;;;;;;;;;5074986;28;20060;-77
2022/01/22 11:17:08;;;;;;;18.58;12.23;;;;;;;;;;5074724;28;20034;-77
2022/01/22 11:19:34;;;;;;;22.17;13.35;;;;;;;;;;5074322;28;20028;-79
2022/01/22 11:22:11;;;;;;;50.85;36.22;;;;;;;;;;5074647;28;20107;-78
2022/01/22 11:24:38;;;;;;;33.25;25.70;;;;;;;;;;5073846;28;20031;-78
2022/01/22 11:27:04;;;;;;;19.95;12.18;;;;;;;;;;5074106;28;20024;-78
2022/01/22 11:29:32;;;;;;;50.63;26.05;;;;;;;;;;5077548;28;20055;-80
2022/01/22 11:32:00;;;;;;;19.05;11.23;;;;;;;;;;5074809;28;20020;-77
2022/01/22 11:34:31;;;;;;;28.88;15.25;;;;;;;;;;5072770;28;20399;-77
2022/01/22 11:37:09;;;;;;;22.75;11.65;;;;;;;;;;5072901;28;20024;-72
2022/01/22 11:39:34;;;;;;;25.67;13.55;;;;;;;;;;5074728;28;20016;-75
2022/01/22 11:42:00;;;;;;;26.80;14.18;;;;;;;;;;5074035;28;20516;-73
2022/01/22 11:44:29;;;;;;;30.52;16.60;;;;;;;;;;5075779;28;20054;-73
2022/01/22 11:47:06;;;;;;;28.23;17.70;;;;;;;;;;5074583;28;20397;-77
2022/01/22 11:49:32;;;;;;;49.50;27.95;;;;;;;;;;5074513;28;20061;-77
2022/01/22 11:52:12;;;;;;;81.57;47.28;;;;;;;;;;5074377;28;20398;-78
2022/01/22 11:54:50;;;;;;;35.30;22.52;;;;;;;;;;5072773;28;20072;-78
2022/01/22 11:57:16;;;;;;;63.30;31.15;;;;;;;;;;5074616;28;20028;-78
2022/01/22 11:59:43;;;;;;;24.10;13.27;;;;;;;;;;5073785;28;20056;-80
2022/01/22 12:02:12;;;;;;;18.95;10.95;;;;;;;;;;5074302;28;20877;-78
2022/01/22 12:04:37;;;;;;;10.20;6.35;;;;;;;;;;5074035;28;20119;-79
2022/01/22 12:07:02;;;;;;;14.18;8.98;;;;;;;;;;5075152;28;20439;-79
2022/01/22 12:15:18;;;;;;;10.02;5.65;;;;;;;;;;5075697;28;20090;-79
2022/01/22 12:18:00;;;;;;;8.15;4.22;;;;;;;;;;5064238;28;20029;-80
2022/01/22 12:23:18;;;;;;;7.95;4.95;;;;;;;;;;5043917;28;20040;-78
2022/01/22 12:25:43;;;;;;;9.48;6.25;;;;;;;;;;5054072;28;20025;-79
2022/01/22 12:28:10;;;;;;;35.70;19.02;;;;;;;;;;5053154;28;20020;-76
2022/01/22 12:30:39;;;;;;;28.65;14.30;;;;;;;;;;5054589;28;20032;-78
2022/01/22 12:33:09;;;;;;;21.73;12.88;;;;;;;;;;5053735;28;20025;-77
2022/01/22 12:35:44;;;;;;;24.17;14.02;;;;;;;;;;5054593;28;20416;-78
2022/01/22 12:44:25;;;;;;;14.38;8.68;;;;;;;;;;5054645;28;20031;-79
2022/01/22 12:46:51;;;;;;;15.45;9.07;;;;;;;;;;5053773;28;20028;-78
2022/01/22 12:49:16;;;;;;;21.75;12.85;;;;;;;;;;5053343;28;20451;-78
2022/01/22 12:51:42;;;;;;;15.52;8.32;;;;;;;;;;5055756;28;20082;-81
2022/01/22 12:54:07;;;;;;;30.70;17.25;;;;;;;;;;5054163;28;20036;-79
2022/01/22 12:59:08;;;;;;;33.90;16.58;;;;;;;;;;5055294;28;20375;-79
2022/01/22 13:01:35;;;;;;;31.33;15.98;;;;;;;;;;5056010;28;20028;-80
2022/01/22 13:04:03;;;;;;;19.45;12.13;;;;;;;;;;5057301;28;20032;-81
2022/01/22 13:06:49;;;;;;;67.25;29.30;;;;;;;;;;5062537;28;20478;-80
2022/01/22 13:09:14;;;;;;;25.17;12.18;;;;;;;;;;5077919;28;20024;-80
2022/01/22 13:11:48;;;;;;;23.95;13.77;;;;;;;;;;5076785;28;20020;-81
2022/01/22 13:14:18;;;;;;;17.48;9.68;;;;;;;;;;5077010;28;20051;-79
2022/01/22 13:16:48;;;;;;;28.30;16.45;;;;;;;;;;5077125;28;20775;-80
2022/01/22 13:19:14;;;;;;;25.60;14.65;;;;;;;;;;5077012;28;20423;-78
2022/01/22 13:21:47;;;;;;;57.70;33.15;;;;;;;;;;5077245;28;20169;-80
2022/01/22 13:24:12;;;;;;;76.07;33.55;;;;;;;;;;5077163;28;20028;-79
2022/01/22 13:26:46;;;;;;;26.65;13.43;;;;;;;;;;5078107;28;20043;-79
2022/01/22 13:29:15;;;;;;;27.08;14.77;;;;;;;;;;5079366;28;20020;-80
2022/01/22 13:31:40;;;;;;;19.92;11.38;;;;;;;;;;5076400;28;20024;-80
2022/01/22 13:34:23;;;;;;;20.25;10.30;;;;;;;;;;5078151;28;20039;-79
2022/01/22 13:37:17;;;;;;;24.02;15.18;;;;;;;;;;5077129;28;20054;-78
2022/01/22 13:45:18;;;;;;;57.95;35.20;;;;;;;;;;5077625;28;20043;-79
2022/01/22 13:47:51;;;;;;;68.28;39.10;;;;;;;;;;5076187;28;20051;-78
2022/01/22 13:50:17;;;;;;;28.85;18.20;;;;;;;;;;5079154;28;20376;-81
2022/01/22 13:52:44;;;;;;;17.08;10.90;;;;;;;;;;5076291;28;20024;-81
2022/01/22 13:55:11;;;;;;;27.48;16.98;;;;;;;;;;5076065;28;20540;-80
2022/01/22 13:57:37;;;;;;;17.02;11.38;;;;;;;;;;5076603;28;20024;-78
2022/01/22 14:00:10;;;;;;;22.60;14.63;;;;;;;;;;5075548;28;20119;-79
2022/01/22 14:05:17;;;;;;;11.43;8.50;;;;;;;;;;5076945;28;20445;-79
2022/01/22 14:07:48;;;;;;;26.33;20.55;;;;;;;;;;5075903;28;20059;-79
2022/01/22 14:10:15;;;;;;;51.70;34.00;;;;;;;;;;5076662;28;20030;-78
2022/01/22 14:13:26;;;;;;;29.58;18.63;;;;;;;;;;5078251;28;20054;-80
2022/01/22 14:15:34;;;;;;;34.35;21.30;;;;;;;;;;5074585;28;20131;-80
2022/01/22 14:20:52;;;;;;;10.52;7.03;;;;;;;;;;5077638;28;20118;-80
2022/01/22 14:23:17;;;;;;;27.55;17.00;;;;;;;;;;5076009;28;20463;-80
2022/01/22 14:25:57;;;;;;;21.23;11.05;;;;;;;;;;5075852;28;20024;-81
2022/01/22 14:28:24;;;;;;;12.65;8.77;;;;;;;;;;5075534;28;20027;-79
2022/01/22 14:30:49;;;;;;;56.65;35.92;;;;;;;;;;5075616;28;20418;-80
2022/01/22 14:33:16;;;;;;;15.80;11.88;;;;;;;;;;5076965;28;20016;-81
2022/01/22 14:35:42;;;;;;;12.95;10.77;;;;;;;;;;5074972;28;20330;-80
2022/01/22 14:38:21;;;;;;;15.40;9.90;;;;;;;;;;5075325;28;20059;-79
2022/01/22 14:44:10;;;;;;;119.10;57.15;;;;;;;;;;5076908;28;20065;-79
2022/01/22 14:46:42;;;;;;;47.70;25.83;;;;;;;;;;5075166;28;20028;-79
2022/01/22 14:49:08;;;;;;;59.53;34.35;;;;;;;;;;5074725;28;20119;-78
2022/01/22 14:51:33;;;;;;;40.83;23.63;;;;;;;;;;5075863;28;20131;-78
2022/01/22 14:53:58;;;;;;;38.50;23.20;;;;;;;;;;5074137;28;20039;-78
2022/01/22 14:56:24;;;;;;;55.60;29.17;;;;;;;;;;5074934;28;20060;-78
2022/01/22 14:58:49;;;;;;;31.38;18.08;;;;;;;;;;5069302;28;20024;-77
2022/01/22 15:01:14;;;;;;;45.90;24.40;;;;;;;;;;5076536;28;20028;-76
2022/01/22 15:03:40;;;;;;;51.28;27.98;;;;;;;;;;5077379;28;20024;-77
2022/01/22 15:06:05;;;;;;;43.45;24.73;;;;;;;;;;5074879;28;20077;-79
2022/01/22 15:08:30;;;;;;;52.03;24.92;;;;;;;;;;5074792;28;20020;-78
2022/01/22 15:10:56;;;;;;;22.38;11.68;;;;;;;;;;5074317;28;20024;-79
2022/01/22 15:13:22;;;;;;;23.67;13.77;;;;;;;;;;5074839;28;20459;-76
2022/01/22 15:15:48;;;;;;;45.80;25.10;;;;;;;;;;5076299;28;20040;-78
2022/01/22 15:18:27;;;;;;;42.25;23.35;;;;;;;;;;5074340;28;20084;-78
2022/01/22 15:20:52;;;;;;;529.50;182.38;;;;;;;;;;5073271;28;20391;-78
2022/01/22 15:23:18;;;;;;;145.80;49.75;;;;;;;;;;5073784;28;20027;-77
2022/01/22 15:25:43;;;;;;;67.68;31.25;;;;;;;;;;5075619;28;20020;-78
2022/01/22 15:28:09;;;;;;;80.90;42.45;;;;;;;;;;5074294;28;20077;-77
2022/01/22 15:30:36;;;;;;;40.45;22.92;;;;;;;;;;5074150;28;20024;-81
2022/01/22 15:33:16;;;;;;;38.40;21.27;;;;;;;;;;5075411;28;20360;-78
2022/01/22 15:35:41;;;;;;;;;;;;;;;;;;5074159;28;20690;-77
2022/01/22 15:38:06;;;;;;;36.43;20.37;;;;;;;;;;5075264;28;19910;-78
2022/01/22 15:40:33;;;;;;;179.63;62.55;;;;;;;;;;5074222;28;20077;-77
2022/01/22 15:42:58;;;;;;;118.38;42.53;;;;;;;;;;5074480;28;20421;-78
2022/01/22 15:45:25;;;;;;;77.88;41.35;;;;;;;;;;5063308;28;20058;-78
2022/01/22 15:47:51;;;;;;;28.10;16.02;;;;;;;;;;5072626;28;20027;-78
2022/01/22 15:50:16;;;;;;;30.50;14.18;;;;;;;;;;5074119;28;20024;-77
2022/01/22 15:52:41;;;;;;;34.42;18.05;;;;;;;;;;5075475;28;20039;-78
2022/01/22 15:55:08;;;;;;;26.23;15.30;;;;;;;;;;5053428;28;20075;-76
2022/01/22 15:57:35;;;;;;;40.10;22.85;;;;;;;;;;5053926;28;20029;-76
2022/01/22 16:00:00;;;;;;;38.88;20.70;;;;;;;;;;5070253;28;20028;-76
2022/01/22 16:02:25;;;;;;;44.08;25.40;;;;;;;;;;5053889;28;20375;-77
2022/01/22 16:04:52;;;;;;;41.92;22.58;;;;;;;;;;5070643;28;20028;-78
2022/01/22 16:07:24;;;;;;;62.35;32.20;;;;;;;;;;5064697;28;20080;-77
2022/01/22 16:09:50;;;;;;;38.80;23.20;;;;;;;;;;5064329;28;20044;-76
2022/01/22 16:12:20;;;;;;;42.25;25.02;;;;;;;;;;5053283;28;20021;-74
2022/01/22 16:14:46;;;;;;;46.97;26.35;;;;;;;;;;5052316;28;20415;-78
2022/01/22 16:17:16;;;;;;;41.22;24.60;;;;;;;;;;5053676;28;20115;-77
2022/01/22 16:19:41;;;;;;;59.35;32.75;;;;;;;;;;5055018;28;20124;-75
2022/01/22 16:22:07;;;;;;;73.32;38.47;;;;;;;;;;5053290;28;20432;-76
2022/01/22 16:24:32;;;;;;;92.70;45.38;;;;;;;;;;5053404;28;20037;-76
2022/01/22 16:26:58;;;;;;;64.22;32.58;;;;;;;;;;5053143;28;20027;-75
2022/01/22 16:29:25;;;;;;;58.50;28.65;;;;;;;;;;5052968;28;20091;-77
2022/01/22 16:32:07;;;;;;;75.55;38.97;;;;;;;;;;5055887;28;20020;-76
2022/01/22 16:34:32;;;;;;;70.47;32.72;;;;;;;;;;5053754;28;20119;-76
2022/01/22 16:36:58;;;;;;;69.38;32.97;;;;;;;;;;5057216;28;20127;-76
2022/01/22 16:39:23;;;;;;;86.45;39.65;;;;;;;;;;5067525;28;20127;-77
2022/01/22 16:41:52;;;;;;;77.82;39.67;;;;;;;;;;5079410;28;20045;-77
2022/01/22 16:44:27;;;;;;;60.03;31.88;;;;;;;;;;5077213;28;20448;-78
2022/01/22 16:54:53;;;;;;;61.45;37.65;;;;;;;;;;5078468;28;20038;-79
2022/01/22 16:57:26;;;;;;;44.50;29.73;;;;;;;;;;5077961;28;20032;-77
2022/01/22 16:59:54;;;;;;;33.70;19.27;;;;;;;;;;5077417;28;20030;-78
2022/01/22 17:02:21;;;;;;;36.38;19.77;;;;;;;;;;5077354;28;20165;-75
2022/01/22 17:04:52;;;;;;;50.35;27.80;;;;;;;;;;5077263;28;20028;-79
2022/01/22 17:07:46;;;;;;;52.53;31.48;;;;;;;;;;5077316;28;20098;-77
2022/01/22 17:10:16;;;;;;;53.85;32.10;;;;;;;;;;5076725;28;20050;-77
2022/01/22 17:15:25;;;;;;;44.13;26.98;;;;;;;;;;5071591;28;20071;-79
2022/01/22 17:17:50;;;;;;;43.05;26.08;;;;;;;;;;5069539;28;20111;-78
2022/01/22 17:20:16;;;;;;;45.58;28.00;;;;;;;;;;5077213;28;20086;-78
2022/01/22 17:22:42;;;;;;;44.25;25.42;;;;;;;;;;5076856;28;20474;-78
2022/01/22 17:25:07;;;;;;;50.97;25.90;;;;;;;;;;5076977;28;20119;-77